createdAt,value
2018-12-16T00:01:43.310Z,98613.59
2018-12-16T00:04:16.339Z,98618.20
2018-12-16T00:06:48.753Z,98613.06
2018-12-16T00:09:18.880Z,98613.69
2018-12-16T00:11:49.201Z,98609.84
2018-12-16T00:14:19.267Z,98615.02
2018-12-16T00:16:49.666Z,98602.76
2018-12-16T00:19:20.277Z,98609.92
2018-12-16T00:21:51.534Z,98605.87
2018-12-16T00:24:22.177Z,98608.88
2018-12-16T00:27:15.644Z,98604.05
2018-12-16T00:29:45.766Z,98609.19
2018-12-16T00:32:15.781Z,98613.37
2018-12-16T00:34:45.880Z,98608.21
2018-12-16T00:37:16.086Z,98610.23
2018-12-16T00:39:46.224Z,98607.58
2018-12-16T00:42:16.410Z,98609.75
2018-12-16T00:44:46.646Z,98608.38
2018-12-16T00:47:16.795Z,98604.61
2018-12-16T00:49:47.799Z,98606.43
2018-12-16T00:54:54.970Z,98600.48
2018-12-16T00:57:24.986Z,98603.11
2018-12-16T00:59:55.256Z,98606.95
2018-12-16T01:02:31.320Z,98605.63
2018-12-16T01:05:01.775Z,98598.64
2018-12-16T01:07:31.815Z,98596.86
2018-12-16T01:10:02.143Z,98589.70
2018-12-16T01:12:34.149Z,98591.34
2018-12-16T01:15:05.080Z,98582.54
2018-12-16T01:17:35.270Z,98584.56
2018-12-16T01:20:06.907Z,98595.36
2018-12-16T01:22:43.230Z,98595.32
2018-12-16T01:25:09.285Z,98604.44
2018-12-16T01:27:40.563Z,98598.64
2018-12-16T01:30:11.117Z,98605.80
2018-12-16T01:32:41.423Z,98596.19
2018-12-16T01:35:11.835Z,98594.66
2018-12-16T01:37:42.010Z,98594.66
2018-12-16T01:40:12.201Z,98588.89
2018-12-16T01:42:43.349Z,98585.75
2018-12-16T01:45:13.608Z,98590.42
2018-12-16T01:47:43.581Z,98597.03
2018-12-16T01:50:14.911Z,98595.07
2018-12-16T01:52:50.121Z,98591.89
2018-12-16T01:55:18.750Z,98584.94
2018-12-16T01:57:49.110Z,98579.11
2018-12-16T02:00:19.692Z,98572.95
2018-12-16T02:02:50.481Z,98570.16
2018-12-16T02:05:21.737Z,98568.02
2018-12-16T02:07:51.708Z,98564.33
2018-12-16T02:10:22.472Z,98554.75
2018-12-16T02:12:52.957Z,98557.23
2018-12-16T02:15:23.170Z,98553.56
2018-12-16T02:17:53.484Z,98552.09
2018-12-16T02:20:23.792Z,98556.39
2018-12-16T02:22:56.974Z,98564.70
2018-12-16T02:25:26.139Z,98552.91
2018-12-16T02:27:57.499Z,98557.92
2018-12-16T02:30:33.393Z,98555.12
2018-12-16T02:33:03.700Z,98548.97
2018-12-16T02:35:34.636Z,98551.94
2018-12-16T02:38:05.825Z,98538.69
2018-12-16T02:40:36.104Z,98544.64
2018-12-16T02:43:06.394Z,98537.68
2018-12-16T02:45:36.556Z,98538.52
2018-12-16T02:48:06.715Z,98540.02
2018-12-16T02:50:37.151Z,98536.05
2018-12-16T02:53:07.630Z,98544.16
2018-12-16T02:55:37.953Z,98546.66
2018-12-16T02:58:08.344Z,98539.52
2018-12-16T03:00:38.680Z,98531.70
2018-12-16T03:03:08.770Z,98529.87
2018-12-16T03:05:39.110Z,98514.44
2018-12-16T03:08:09.206Z,98524.05
2018-12-16T03:10:39.549Z,98523.22
2018-12-16T03:13:09.757Z,98529.05
2018-12-16T03:15:40.915Z,98521.58
2018-12-16T03:18:11.383Z,98525.91
2018-12-16T03:20:43.042Z,98530.37
2018-12-16T03:23:14.470Z,98528.90
2018-12-16T03:25:44.676Z,98525.92
2018-12-16T03:28:15.020Z,98519.42
2018-12-16T03:30:45.332Z,98521.24
2018-12-16T03:33:15.360Z,98515.94
2018-12-16T03:35:45.873Z,98522.41
2018-12-16T03:38:16.588Z,98509.64
2018-12-16T03:40:46.938Z,98514.60
2018-12-16T03:43:16.988Z,98510.97
2018-12-16T03:45:47.042Z,98512.30
2018-12-16T03:48:17.227Z,98511.31
2018-12-16T03:50:47.549Z,98507.00
2018-12-16T03:53:20.119Z,98513.16
2018-12-16T03:55:50.240Z,98515.63
2018-12-16T03:58:20.397Z,98519.44
2018-12-16T04:00:50.685Z,98517.78
2018-12-16T04:03:21.412Z,98519.31
2018-12-16T04:05:52.422Z,98524.45
2018-12-16T04:08:22.715Z,98518.83
2018-12-16T04:10:52.947Z,98518.16
2018-12-16T04:13:23.177Z,98517.63
2018-12-16T04:15:55.407Z,98517.99
2018-12-16T04:18:25.635Z,98520.14
2018-12-16T04:20:55.791Z,98506.20
2018-12-16T04:23:27.511Z,98507.37
2018-12-16T04:25:58.866Z,98502.20
2018-12-16T04:28:29.686Z,98505.72
2018-12-16T04:31:00.221Z,98506.35
2018-12-16T04:33:30.389Z,98503.69
2018-12-16T04:36:01.505Z,98510.98
2018-12-16T04:38:31.615Z,98496.73
2018-12-16T04:41:03.190Z,98510.34
2018-12-16T04:43:33.323Z,98504.70
2018-12-16T04:46:04.372Z,98498.91
2018-12-16T04:51:13.781Z,98506.03
2018-12-16T04:53:43.848Z,98498.70
2018-12-16T04:56:14.727Z,98499.37
2018-12-16T04:58:45.362Z,98512.68
2018-12-16T05:01:15.842Z,98501.38
2018-12-16T05:03:47.579Z,98505.55
2018-12-16T05:06:19.536Z,98501.38
2018-12-16T05:08:50.179Z,98503.22
2018-12-16T05:11:20.749Z,98503.88
2018-12-16T05:13:51.519Z,98506.02
2018-12-16T05:16:22.339Z,98499.55
2018-12-16T05:18:52.516Z,98500.38
2018-12-16T05:21:22.932Z,98507.72
2018-12-16T05:23:53.128Z,98505.38
2018-12-16T05:26:23.398Z,98506.87
2018-12-16T05:28:53.451Z,98509.69
2018-12-16T05:31:24.153Z,98510.03
2018-12-16T05:33:54.428Z,98509.70
2018-12-16T05:36:25.142Z,98509.36
2018-12-16T05:38:56.773Z,98498.56
2018-12-16T05:41:27.745Z,98495.56
2018-12-16T05:43:58.496Z,98498.07
2018-12-16T05:46:28.790Z,98496.56
2018-12-16T05:48:58.944Z,98498.05
2018-12-16T05:51:29.135Z,98489.75
2018-12-16T05:53:59.326Z,98496.07
2018-12-16T05:56:29.641Z,98482.97
2018-12-16T05:59:00.116Z,98485.45
2018-12-16T06:01:34.770Z,98485.93
2018-12-16T06:04:06.110Z,98491.94
2018-12-16T06:06:36.610Z,98491.25
2018-12-16T06:09:07.297Z,98492.25
2018-12-16T06:11:37.585Z,98496.23
2018-12-16T06:14:07.647Z,98501.38
2018-12-16T06:16:38.023Z,98503.39
2018-12-16T06:19:09.057Z,98505.86
2018-12-16T06:21:39.278Z,98499.89
2018-12-16T06:24:09.908Z,98506.02
2018-12-16T06:26:41.101Z,98502.55
2018-12-16T06:29:11.959Z,98498.89
2018-12-16T06:31:43.085Z,98506.69
2018-12-16T06:34:13.516Z,98514.50
2018-12-16T06:36:43.680Z,98516.48
2018-12-16T06:39:14.546Z,98507.20
2018-12-16T06:41:44.674Z,98496.72
2018-12-16T06:44:14.785Z,98497.73
2018-12-16T06:46:44.945Z,98489.27
2018-12-16T06:49:15.210Z,98494.73
2018-12-16T06:51:46.621Z,98492.25
2018-12-16T06:54:18.693Z,98490.57
2018-12-16T06:56:48.869Z,98486.42
2018-12-16T06:59:25.161Z,98500.22
2018-12-16T07:01:56.127Z,98501.40
2018-12-16T07:04:26.420Z,98512.35
2018-12-16T07:06:56.593Z,98507.04
2018-12-16T07:09:26.876Z,98502.36
2018-12-16T07:11:57.061Z,98503.55
2018-12-16T07:14:27.226Z,98508.87
2018-12-16T07:16:57.397Z,98504.88
2018-12-16T07:19:28.436Z,98509.53
2018-12-16T07:22:05.416Z,98511.38
2018-12-16T07:24:35.809Z,98509.84
2018-12-16T07:29:52.959Z,98507.39
2018-12-16T07:32:23.093Z,98516.02
2018-12-16T07:34:57.456Z,98518.35
2018-12-16T07:40:04.502Z,98522.84
2018-12-16T07:42:34.591Z,98523.65
2018-12-16T07:45:06.349Z,98523.16
2018-12-16T07:47:36.541Z,98517.86
2018-12-16T07:52:47.752Z,98515.34
2018-12-16T07:55:18.066Z,98519.20
2018-12-16T07:57:49.249Z,98517.38
2018-12-16T08:00:19.510Z,98518.38
2018-12-16T08:02:49.913Z,98525.98
2018-12-16T08:05:19.925Z,98529.48
2018-12-16T08:07:50.072Z,98522.83
2018-12-16T08:10:21.342Z,98516.20
2018-12-16T08:12:51.303Z,98525.15
2018-12-16T08:15:21.506Z,98536.30
2018-12-16T08:17:51.725Z,98544.45
2018-12-16T08:20:22.267Z,98539.45
2018-12-16T08:22:52.847Z,98547.24
2018-12-16T08:25:23.662Z,98560.08
2018-12-16T08:27:54.621Z,98570.20
2018-12-16T08:30:24.941Z,98568.70
2018-12-16T08:32:55.067Z,98559.37
2018-12-16T08:35:25.374Z,98562.87
2018-12-16T08:37:56.274Z,98559.36
2018-12-16T08:40:26.472Z,98549.70
2018-12-16T08:42:56.752Z,98550.86
2018-12-16T08:45:26.745Z,98552.87
2018-12-16T08:47:57.135Z,98554.02
2018-12-16T08:50:27.375Z,98561.20
2018-12-16T08:52:57.860Z,98564.86
2018-12-16T08:55:28.110Z,98576.98
2018-12-16T08:57:58.244Z,98581.45
2018-12-16T09:00:28.824Z,98591.64
2018-12-16T09:02:59.468Z,98590.80
2018-12-16T09:05:29.580Z,98589.66
2018-12-16T09:08:00.538Z,98591.80
2018-12-16T09:10:34.076Z,98597.14
2018-12-16T09:13:03.348Z,98604.77
2018-12-16T09:15:33.793Z,98602.62
2018-12-16T09:18:04.023Z,98602.75
2018-12-16T09:20:34.188Z,98601.63
2018-12-16T09:23:04.372Z,98595.28
2018-12-16T09:25:34.664Z,98594.64
2018-12-16T09:28:05.452Z,98590.66
2018-12-16T09:30:35.946Z,98591.65
2018-12-16T09:33:06.379Z,98590.31
2018-12-16T09:35:36.879Z,98586.50
2018-12-16T09:38:07.375Z,98581.69
2018-12-16T09:40:37.409Z,98577.03
2018-12-16T09:43:08.960Z,98578.86
2018-12-16T09:45:39.394Z,98585.16
2018-12-16T09:48:10.060Z,98580.68
2018-12-16T09:50:40.125Z,98576.37
2018-12-16T09:53:11.718Z,98573.70
2018-12-16T09:55:42.542Z,98570.03
2018-12-16T10:01:00.536Z,98565.19
2018-12-16T10:03:31.617Z,98558.69
2018-12-16T10:06:01.524Z,98555.38
2018-12-16T10:08:32.381Z,98553.37
2018-12-16T10:11:06.369Z,98554.70
2018-12-16T10:13:36.255Z,98547.50
2018-12-16T10:16:06.217Z,98547.09
2018-12-16T10:21:23.142Z,98538.02
2018-12-16T10:26:31.175Z,98534.86
2018-12-16T10:29:02.142Z,98536.67
2018-12-16T10:31:32.538Z,98534.05
2018-12-16T10:34:03.512Z,98523.36
2018-12-16T10:36:34.050Z,98520.06
2018-12-16T10:39:09.411Z,98508.89
2018-12-16T10:41:39.392Z,98498.84
2018-12-16T10:44:13.788Z,98491.13
2018-12-16T10:46:44.615Z,98495.46
2018-12-16T10:49:15.557Z,98486.91
2018-12-16T10:51:47.139Z,98483.12
2018-12-16T10:54:17.841Z,98477.64
2018-12-16T10:56:48.723Z,98480.80
2018-12-16T10:59:21.402Z,98480.12
2018-12-16T11:01:51.976Z,98482.16
2018-12-16T11:06:59.323Z,98486.02
2018-12-16T11:09:29.657Z,98480.40
2018-12-16T11:11:59.936Z,98477.16
2018-12-16T11:14:31.035Z,98474.03
2018-12-16T11:17:02.383Z,98471.98
2018-12-16T11:19:33.123Z,98474.38
2018-12-16T11:22:04.256Z,98473.96
2018-12-16T11:24:34.880Z,98472.75
2018-12-16T11:27:05.906Z,98479.13
2018-12-16T11:29:36.903Z,98479.20
2018-12-16T11:32:07.646Z,98481.47
2018-12-16T11:34:38.640Z,98488.61
2018-12-16T11:37:10.569Z,98494.84
2018-12-16T11:39:40.963Z,98487.98
2018-12-16T11:42:11.119Z,98485.09
2018-12-16T11:44:41.652Z,98488.06
2018-12-16T11:47:13.173Z,98484.27
2018-12-16T11:49:44.437Z,98491.53
2018-12-16T11:52:15.281Z,98490.02
2018-12-16T11:54:47.601Z,98487.66
2018-12-16T11:57:17.532Z,98488.21
2018-12-16T11:59:47.452Z,98479.00
2018-12-16T12:02:18.148Z,98473.94
2018-12-16T12:04:51.551Z,98472.48
2018-12-16T12:07:22.551Z,98477.13
2018-12-16T12:09:53.954Z,98471.28
2018-12-16T12:12:24.521Z,98481.16
2018-12-16T12:14:55.003Z,98478.24
2018-12-16T12:17:25.508Z,98482.34
2018-12-16T12:19:56.050Z,98478.44
2018-12-16T12:25:03.050Z,98491.39
2018-12-16T12:27:33.303Z,98497.16
2018-12-16T12:30:05.462Z,98492.02
2018-12-16T12:32:38.097Z,98487.79
2018-12-16T12:35:11.757Z,98480.27
2018-12-16T12:37:43.608Z,98478.06
2018-12-16T12:40:14.266Z,98486.19
2018-12-16T12:42:44.587Z,98483.41
2018-12-16T12:45:14.603Z,98496.32
2018-12-16T12:47:44.973Z,98486.34
2018-12-16T12:50:16.038Z,98476.95
2018-12-16T12:52:46.036Z,98483.64
2018-12-16T12:57:53.516Z,98479.27
2018-12-16T13:00:25.816Z,98478.52
2018-12-16T13:02:56.685Z,98478.27
2018-12-16T13:05:26.573Z,98479.84
2018-12-16T13:07:57.040Z,98471.38
2018-12-16T13:10:27.509Z,98475.39
2018-12-16T13:13:02.409Z,98476.62
2018-12-16T13:15:32.806Z,98475.13
2018-12-16T13:18:03.326Z,98472.47
2018-12-16T13:20:33.214Z,98475.77
2018-12-16T13:23:03.856Z,98486.30
2018-12-16T13:25:45.129Z,98480.24
2018-12-16T13:28:16.441Z,98482.52
2018-12-16T13:30:46.997Z,98488.91
2018-12-16T13:35:56.769Z,98482.02
2018-12-16T13:41:04.264Z,98491.63
2018-12-16T13:43:34.289Z,98490.14
2018-12-16T13:48:43.352Z,98482.00
2018-12-16T13:51:15.109Z,98491.12
2018-12-16T13:53:45.983Z,98495.69
2018-12-16T13:56:16.297Z,98487.16
2018-12-16T13:58:46.753Z,98489.19
2018-12-16T14:01:16.744Z,98489.72
2018-12-16T14:03:50.730Z,98490.08
2018-12-16T14:06:22.059Z,98493.66
2018-12-16T14:08:53.939Z,98502.73
2018-12-16T14:11:25.067Z,98498.48
2018-12-16T14:13:56.594Z,98502.42
2018-12-16T14:16:27.156Z,98500.05
2018-12-16T14:18:59.039Z,98501.37
2018-12-16T14:21:29.684Z,98502.94
2018-12-16T14:24:00.765Z,98507.75
2018-12-16T14:26:35.337Z,98510.62
2018-12-16T14:29:07.100Z,98509.00
2018-12-16T14:31:37.684Z,98520.06
2018-12-16T14:34:08.368Z,98523.98
2018-12-16T14:36:38.971Z,98526.50
2018-12-16T14:39:11.099Z,98532.20
2018-12-16T14:41:41.160Z,98537.70
2018-12-16T14:44:11.161Z,98539.06
2018-12-16T14:46:42.869Z,98547.91
2018-12-16T14:49:15.473Z,98549.24
2018-12-16T14:51:45.932Z,98549.41
2018-12-16T14:56:53.080Z,98551.77
2018-12-16T14:59:23.656Z,98549.94
2018-12-16T15:01:54.581Z,98550.11
2018-12-16T15:04:25.038Z,98547.76
2018-12-16T15:06:55.493Z,98540.27
2018-12-16T15:09:26.062Z,98543.63
2018-12-16T15:14:33.292Z,98558.22
2018-12-16T15:17:04.450Z,98552.89
2018-12-16T15:19:34.413Z,98553.84
2018-12-16T15:22:05.581Z,98556.48
2018-12-16T15:24:37.288Z,98553.17
2018-12-16T15:27:12.449Z,98550.31
2018-12-16T15:29:42.699Z,98551.30
2018-12-16T15:32:13.458Z,98550.06
2018-12-16T15:34:44.944Z,98555.21
2018-12-16T15:37:15.684Z,98555.35
2018-12-16T15:39:50.329Z,98552.18
2018-12-16T15:42:20.467Z,98559.28
2018-12-16T15:44:51.669Z,98561.75
2018-12-16T15:47:21.772Z,98564.20
2018-12-16T15:49:52.193Z,98560.36
2018-12-16T15:52:22.879Z,98567.97
2018-12-16T15:54:54.132Z,98564.93
2018-12-16T15:57:26.442Z,98566.42
2018-12-16T15:59:58.996Z,98566.91
2018-12-16T16:02:31.461Z,98563.38
2018-12-16T16:05:02.525Z,98564.70
2018-12-16T16:07:32.487Z,98586.06
2018-12-16T16:10:09.495Z,98578.09
2018-12-16T16:12:40.113Z,98574.73
2018-12-16T16:15:12.241Z,98574.88
2018-12-16T16:17:42.836Z,98569.88
2018-12-16T16:20:14.162Z,98572.00
2018-12-16T16:22:44.881Z,98572.95
2018-12-16T16:25:18.196Z,98572.25
2018-12-16T16:27:49.002Z,98571.16
2018-12-16T16:32:56.812Z,98563.32
2018-12-16T16:35:29.212Z,98570.03
2018-12-16T16:38:01.046Z,98575.44
2018-12-16T16:40:35.458Z,98571.77
2018-12-16T16:43:07.001Z,98575.50
2018-12-16T16:48:14.194Z,98574.56
2018-12-16T16:50:45.328Z,98576.32
2018-12-16T16:53:16.912Z,98585.05
2018-12-16T16:55:48.382Z,98583.41
2018-12-16T16:58:19.606Z,98585.33
2018-12-16T17:00:50.376Z,98581.30
2018-12-16T17:03:21.028Z,98587.38
2018-12-16T17:05:52.669Z,98583.21
2018-12-16T17:08:22.907Z,98583.67
2018-12-16T17:10:54.091Z,98583.97
2018-12-16T17:13:24.725Z,98596.66
2018-12-16T17:15:55.225Z,98593.98
2018-12-16T17:18:25.476Z,98594.11
2018-12-16T17:20:55.750Z,98594.76
2018-12-16T17:23:25.759Z,98593.56
2018-12-16T17:25:56.002Z,98583.63
2018-12-16T17:28:26.147Z,98594.98
2018-12-16T17:30:57.232Z,98585.88
2018-12-16T17:33:29.827Z,98587.50
2018-12-16T17:36:01.774Z,98587.31
2018-12-16T17:38:32.090Z,98588.92
2018-12-16T17:41:03.041Z,98583.44
2018-12-16T17:46:11.219Z,98584.05
2018-12-16T17:48:42.146Z,98581.92
2018-12-16T17:51:13.455Z,98585.66
2018-12-16T17:53:44.702Z,98576.37
2018-12-16T17:56:15.002Z,98582.79
2018-12-16T17:58:46.085Z,98587.88
2018-12-16T18:01:21.100Z,98590.30
2018-12-16T18:03:51.911Z,98597.91
2018-12-16T18:08:59.178Z,98597.66
2018-12-16T18:11:29.275Z,98596.34
2018-12-16T18:13:59.432Z,98598.47
2018-12-16T18:16:30.736Z,98592.47
2018-12-16T18:19:01.296Z,98594.50
2018-12-16T18:21:33.020Z,98596.25
2018-12-16T18:24:03.875Z,98594.12
2018-12-16T18:26:35.267Z,98594.60
2018-12-16T18:29:07.163Z,98593.08
2018-12-16T18:31:37.557Z,98599.02
2018-12-16T18:34:09.946Z,98603.12
2018-12-16T18:36:41.136Z,98600.44
2018-12-16T18:39:12.210Z,98604.19
2018-12-16T18:41:44.532Z,98596.02
2018-12-16T18:44:15.667Z,98587.88
2018-12-16T18:46:46.327Z,98591.63
2018-12-16T18:49:17.727Z,98588.40
2018-12-16T18:51:51.189Z,98583.84
2018-12-16T18:54:22.120Z,98586.66
2018-12-16T18:56:56.842Z,98589.91
2018-12-16T18:59:29.738Z,98589.34
2018-12-16T19:02:00.021Z,98590.68
2018-12-16T19:04:31.171Z,98580.83
2018-12-16T19:07:03.685Z,98583.00
2018-12-16T19:09:34.240Z,98576.13
2018-12-16T19:14:42.940Z,98581.07
2018-12-16T19:17:13.076Z,98574.67
2018-12-16T19:19:44.098Z,98573.43
2018-12-16T19:22:14.694Z,98568.07
2018-12-16T19:24:45.734Z,98567.83
2018-12-16T19:27:16.277Z,98566.78
2018-12-16T19:29:47.569Z,98569.70
2018-12-16T19:32:18.357Z,98571.99
2018-12-16T19:34:48.773Z,98567.06
2018-12-16T19:37:19.819Z,98571.18
2018-12-16T19:39:50.611Z,98568.73
2018-12-16T19:42:22.242Z,98565.26
2018-12-16T19:44:54.554Z,98560.77
2018-12-16T19:47:24.745Z,98555.61
2018-12-16T19:49:55.701Z,98556.09
2018-12-16T19:52:27.193Z,98555.32
2018-12-16T19:54:58.937Z,98551.08
2018-12-16T19:57:30.982Z,98552.56
2018-12-16T20:00:01.210Z,98560.33
2018-12-16T20:02:31.583Z,98561.92
2018-12-16T20:05:05.587Z,98552.68
2018-12-16T20:07:36.685Z,98561.92
2018-12-16T20:10:07.237Z,98560.67
2018-12-16T20:12:37.663Z,98571.39
2018-12-16T20:15:10.371Z,98569.87
2018-12-16T20:17:45.292Z,98564.23
2018-12-16T20:22:54.926Z,98573.63
2018-12-16T20:25:26.055Z,98557.78
2018-12-16T20:27:57.844Z,98556.92
2018-12-16T20:30:29.114Z,98557.61
2018-12-16T20:33:02.306Z,98551.64
2018-12-16T20:35:33.868Z,98553.03
2018-12-16T20:38:05.142Z,98555.02
2018-12-16T20:40:37.045Z,98559.81
2018-12-16T20:43:10.031Z,98555.98
2018-12-16T20:45:41.197Z,98546.38
2018-12-16T20:48:11.451Z,98553.89
2018-12-16T20:50:43.245Z,98557.16
2018-12-16T20:53:14.419Z,98557.79
2018-12-16T20:55:46.128Z,98558.11
2018-12-16T21:00:54.798Z,98553.66
2018-12-16T21:03:26.518Z,98547.42
2018-12-16T21:06:04.248Z,98548.74
2018-12-16T21:08:35.616Z,98548.38
2018-12-16T21:11:12.165Z,98549.00
2018-12-16T21:13:47.594Z,98556.41
2018-12-16T21:16:24.524Z,98557.16
2018-12-16T21:18:56.436Z,98558.93
2018-12-16T21:21:27.474Z,98560.76
2018-12-16T21:23:59.050Z,98576.34
2018-12-16T21:26:31.901Z,98585.38
2018-12-16T21:29:03.860Z,98583.00
2018-12-16T21:31:34.220Z,98579.41
2018-12-16T21:34:05.394Z,98583.79
2018-12-16T21:36:38.968Z,98576.56
2018-12-16T21:39:10.135Z,98573.44
2018-12-16T21:41:40.653Z,98577.88
2018-12-16T21:44:11.977Z,98581.48
2018-12-16T21:46:43.509Z,98579.83
2018-12-16T21:49:14.438Z,98579.95
2018-12-16T21:51:45.636Z,98575.15
2018-12-16T21:56:53.983Z,98590.65
2018-12-16T22:02:10.290Z,98607.32
2018-12-16T22:04:41.020Z,98604.05
2018-12-16T22:07:12.629Z,98609.06
2018-12-16T22:09:42.589Z,98602.53
2018-12-16T22:12:13.247Z,98605.95
2018-12-16T22:14:47.497Z,98606.52
2018-12-16T22:17:18.377Z,98604.89
2018-12-16T22:19:50.223Z,98605.52
2018-12-16T22:24:57.662Z,98610.17
2018-12-16T22:27:29.257Z,98613.59
2018-12-16T22:30:01.236Z,98613.61
2018-12-16T22:32:33.502Z,98607.69
2018-12-16T22:35:05.521Z,98608.59
2018-12-16T22:37:37.019Z,98605.20
2018-12-16T22:40:13.290Z,98597.02
2018-12-16T22:42:46.522Z,98600.77
2018-12-16T22:45:17.311Z,98598.87
2018-12-16T22:47:49.291Z,98604.98
2018-12-16T22:50:20.583Z,98606.42
2018-12-16T22:52:52.784Z,98596.71
2018-12-16T22:55:24.181Z,98585.95
2018-12-16T22:57:55.681Z,98587.06
2018-12-16T23:00:30.217Z,98595.33
2018-12-16T23:03:04.157Z,98589.84
2018-12-16T23:05:36.122Z,98588.52
2018-12-16T23:08:06.930Z,98581.42
2018-12-16T23:10:39.543Z,98580.61
2018-12-16T23:13:09.825Z,98581.84
2018-12-16T23:15:42.746Z,98584.95
2018-12-16T23:18:14.893Z,98588.70
2018-12-16T23:20:47.077Z,98583.84
2018-12-16T23:23:19.305Z,98588.19
2018-12-16T23:25:50.570Z,98584.49
2018-12-16T23:28:22.632Z,98582.17
2018-12-16T23:30:53.009Z,98590.45
2018-12-16T23:33:24.459Z,98594.67
2018-12-16T23:35:56.372Z,98587.39
2018-12-16T23:38:27.954Z,98580.59
2018-12-16T23:41:00.174Z,98588.51
2018-12-16T23:43:32.157Z,98592.25
2018-12-16T23:46:03.583Z,98592.98
2018-12-16T23:51:13.161Z,98593.77
2018-12-16T23:53:45.016Z,98594.88
2018-12-16T23:56:15.717Z,98589.52
2018-12-16T23:58:46.544Z,98596.56
